KSFOKHAF

Guest
Details From KSFO - San Francisco Intl
To KHAF - HALF MOON BAY
Flight Number -
Tags generated
Created
Modified
Stats Distance 9 nm / 16 km
Max Altitude 0 ft / 0 m
Waypoints 3
Social Downloads 1
Likes 0
Share VATSIM

Download

Looking for another format? Having issues loading an existing format? Contact us
Advertisement - Login to hide

Notes

Basic altitude profile: - Ascent Rate: 2500ft/min - Ascent Speed: 250kts - Cruise Altitude: 35000ft - Cruise Speed: 420kts - Descent Rate: 1500ft/min - Descent Speed: 250kts Options: - Use NATs: yes - Use PACOTS: yes - Use low airways: yes - Use high airways: yes

Route

KSFO SFO KHAF

ID Type Via Altitude Latitude Longitude Leg Dist Tot Dist Heading (true) Name
O KSFO APT - 0 ft / 0 m 37.61867˚ -122.37501˚ - 0 nm - San Francisco Intl
SFO DME - 0 ft / 0 m 37.61948˚ -122.37389˚ 0 nm 0 nm 48° / 48° SAN FRANCISCO VOR-DME
O KHAF APT - 0 ft / 0 m 37.51343˚ -122.50116˚ 8 nm 8 nm 224° / 224° HALF MOON BAY

Altitude Profile

Advertisement - Login to hide

KSFO

Details ICAO KSFO (SFO)
Name San Francisco Intl
Region United States
Timezone America/Los_Angeles (UTC-8.0)
Stats Elevation 13 ft / 4 m (AMSL)
Location 37.618674° -122.375008°
Runways 4
Magnetic Variation 13.463° E

METAR

KSFO 152156Z 00000KT 5SM HZ BKN200 13/08 A3008 RMK AO2 SLP185 T01280078

Decode

TAF

TAF AMD KSFO 152100Z 1521/1624 VRB03KT P6SM FEW200 FM152200 29007KT P6SM BKN200 FM160100 28012KT P6SM SCT150 BKN200 FM160400 29014G21KT P6SM FEW025 BKN180 FM160700 30020G28KT P6SM FEW090 SCT180 FM161200 32024G32KT P6SM SCT200 FM161900 34026G35KT P6SM FEW250

Decode

Departure Runways

ID Width Length Bearing (true) Bearing (mag) Surface Threshold Offset Overrun Length
01L 200 ft / 61 m 7,509 ft / 2,289 m 27.70° 14.24° Asphalt 492 ft / 150 m 0 ft / 0 m
01R 200 ft / 61 m 8,907 ft / 2,715 m 27.71° 14.25° Asphalt 492 ft / 150 m 0 ft / 0 m
10L 200 ft / 61 m 11,856 ft / 3,614 m 117.89° 104.43° Asphalt 0 ft / 0 m 860 ft / 262 m
10R 200 ft / 61 m 10,589 ft / 3,228 m 117.90° 104.44° Asphalt 0 ft / 0 m 0 ft / 0 m
19L 200 ft / 61 m 8,907 ft / 2,715 m 207.72° 194.26° Asphalt 0 ft / 0 m 0 ft / 0 m
19R 200 ft / 61 m 7,509 ft / 2,289 m 207.70° 194.24° Asphalt 0 ft / 0 m 0 ft / 0 m
28L 200 ft / 61 m 10,589 ft / 3,228 m 297.92° 284.46° Asphalt 0 ft / 0 m 341 ft / 104 m
28R 200 ft / 61 m 11,856 ft / 3,614 m 297.91° 284.45° Asphalt 0 ft / 0 m 341 ft / 104 m

KHAF

Details ICAO KHAF
Name HALF MOON BAY
Region United States
Timezone America/Los_Angeles (UTC-8.0)
Stats Elevation 66 ft / 20 m (AMSL)
Location 37.513435° -122.501163°
Runways 1
Magnetic Variation 13.459° E

METAR

KHAF 152155Z AUTO 31009KT 3SM HZ CLR 15/08 A3005 RMK AO2

Decode

TAF

Not found

Destination Runways

ID Width Length Bearing (true) Bearing (mag) Surface Threshold Offset Overrun Length
12 151 ft / 46 m 5,005 ft / 1,525 m 137.06° 123.60° Asphalt 764 ft / 233 m 0 ft / 0 m
30 151 ft / 46 m 5,005 ft / 1,525 m 317.06° 303.60° Asphalt 764 ft / 233 m 0 ft / 0 m

Popular Alternatives